Shorewood Hills, Wisconsin
Current Conditions -  °F | °C
As of 11:55 AM on Tuesday 21 Oct 2014 (Local Time) from KC29 Reporting Station
Overcast Overcast  
Wind Chill: 45°   Ceiling: 2100
Heat Index: 48°   Visibility: 10mi
Dew Point: 36°   Wind: 7mph
Humidity: 63%   Direction: 60°ENE
Pressure: 30.24"   Gusts: NA
Location:  43.0738°N, 89.4589°W
Report Text: KC29 211655Z AUTO 06006KT 10SM OVC021 09/02 A3024 RMK AO1 T00880021
Loading
Personal Weather Stations






























Interactive Weather Map
Tropical Storm Tracking
New forecast layout! Learn more

10-Day Weather Forecast

Advertisements
Track Severe Weather on mobile